Time;durP1;ratioP1;P1;durP2;ratioP2;P2;SDS_P1;SDS_P2;PMS_P1;PMS_P2;Temp;Humidity;BMP_temperature;BMP_pressure;BME280_temperature;BME280_humidity;BME280_pressure;Samples;Min_cycle;Max_cycle;Signal;HPM_P1;HPM_P2
2022/10/18 00:02:20;;;;;;;52.50;16.60;;;;;;;;;;4950345;28;20589;-94
2022/10/18 00:04:46;;;;;;;41.10;16.55;;;;;;;;;;4948169;28;20043;-94
2022/10/18 00:07:12;;;;;;;52.35;16.90;;;;;;;;;;4951988;28;20031;-93
2022/10/18 00:09:38;;;;;;;46.35;17.05;;;;;;;;;;4944297;28;20027;-94
2022/10/18 00:12:04;;;;;;;44.20;15.05;;;;;;;;;;4927984;28;20058;-93
2022/10/18 00:14:30;;;;;;;56.60;17.45;;;;;;;;;;4933617;28;20043;-93
2022/10/18 00:16:57;;;;;;;52.80;17.40;;;;;;;;;;4939664;28;20269;-93
2022/10/18 00:19:23;;;;;;;42.45;17.77;;;;;;;;;;4944172;28;20039;-93
2022/10/18 00:21:50;;;;;;;55.60;18.80;;;;;;;;;;4940255;28;20037;-93
2022/10/18 00:24:16;;;;;;;67.65;20.73;;;;;;;;;;4945395;28;20036;-93
2022/10/18 00:26:43;;;;;;;65.22;21.52;;;;;;;;;;4941390;28;20465;-94
2022/10/18 00:29:12;;;;;;;61.85;22.38;;;;;;;;;;4932342;28;20789;-94
2022/10/18 00:31:38;;;;;;;64.40;21.63;;;;;;;;;;4948282;28;20061;-94
2022/10/18 00:34:05;;;;;;;90.38;23.92;;;;;;;;;;4936651;28;20047;-94
2022/10/18 00:36:33;;;;;;;93.90;25.77;;;;;;;;;;4939653;28;21887;-93
2022/10/18 00:38:59;;;;;;;95.20;24.27;;;;;;;;;;4944705;28;22062;-95
2022/10/18 00:41:34;;;;;;;93.18;23.80;;;;;;;;;;4944274;28;20482;-94
2022/10/18 00:44:26;;;;;;;97.35;26.65;;;;;;;;;;4938192;28;20088;-94
2022/10/18 00:46:55;;;;;;;88.82;23.38;;;;;;;;;;4953469;28;20042;-93
2022/10/18 00:49:22;;;;;;;98.60;26.67;;;;;;;;;;4951676;28;20467;-93
2022/10/18 00:51:56;;;;;;;116.82;27.13;;;;;;;;;;4961028;28;20051;-93
2022/10/18 00:54:23;;;;;;;115.90;28.20;;;;;;;;;;4948491;28;20092;-94
2022/10/18 00:56:55;;;;;;;112.93;25.95;;;;;;;;;;4927344;28;20510;-94
2022/10/18 00:59:22;;;;;;;83.72;23.35;;;;;;;;;;4950616;28;20106;-94
2022/10/18 01:01:48;;;;;;;96.38;25.15;;;;;;;;;;4939632;28;20023;-94
2022/10/18 01:04:15;;;;;;;88.15;23.98;;;;;;;;;;4942381;28;20594;-95
2022/10/18 01:06:47;;;;;;;86.22;23.67;;;;;;;;;;4944712;28;20391;-96
2022/10/18 01:09:20;;;;;;;107.75;27.08;;;;;;;;;;4949906;28;20382;-95
2022/10/18 01:11:52;;;;;;;108.15;25.80;;;;;;;;;;4947498;28;20019;-94
2022/10/18 01:14:21;;;;;;;85.25;21.90;;;;;;;;;;4945724;28;20031;-94
2022/10/18 01:16:59;;;;;;;91.10;23.17;;;;;;;;;;4952272;28;20442;-95
2022/10/18 01:19:43;;;;;;;93.13;25.77;;;;;;;;;;4942653;28;20024;-94
2022/10/18 01:22:12;;;;;;;65.57;20.80;;;;;;;;;;4943362;28;20400;-94
2022/10/18 01:24:50;;;;;;;81.72;23.35;;;;;;;;;;4939060;28;20034;-95
2022/10/18 01:27:19;;;;;;;84.05;24.52;;;;;;;;;;4936538;28;20039;-94
2022/10/18 01:29:48;;;;;;;74.88;23.20;;;;;;;;;;4945611;28;20032;-95
2022/10/18 01:32:18;;;;;;;102.80;25.52;;;;;;;;;;4939944;28;20665;-95
2022/10/18 01:34:45;;;;;;;84.05;22.30;;;;;;;;;;4946505;28;20027;-96
2022/10/18 01:37:14;;;;;;;80.10;24.67;;;;;;;;;;4937483;28;20035;-95
2022/10/18 01:39:41;;;;;;;65.07;23.48;;;;;;;;;;4944252;28;20031;-96
2022/10/18 01:42:09;;;;;;;91.22;25.15;;;;;;;;;;4941716;28;20122;-95
2022/10/18 01:44:37;;;;;;;86.50;25.02;;;;;;;;;;4954558;28;20039;-93
2022/10/18 01:47:03;;;;;;;108.38;21.55;;;;;;;;;;4945084;28;20543;-94
2022/10/18 01:49:29;;;;;;;115.53;26.17;;;;;;;;;;4921239;29;20736;-95
2022/10/18 01:51:55;;;;;;;190.77;30.10;;;;;;;;;;4928555;29;20031;-95
2022/10/18 01:54:24;;;;;;;125.85;25.58;;;;;;;;;;4915455;29;20096;-94
2022/10/18 01:57:03;;;;;;;236.90;30.60;;;;;;;;;;4957360;28;20031;-95
2022/10/18 01:59:33;;;;;;;178.00;29.63;;;;;;;;;;4940568;28;20035;-94
2022/10/18 02:01:59;;;;;;;171.18;27.90;;;;;;;;;;4947682;28;20024;-95
2022/10/18 02:04:26;;;;;;;78.25;18.23;;;;;;;;;;4934715;28;20078;-95
2022/10/18 02:06:56;;;;;;;112.60;25.58;;;;;;;;;;4940876;28;20028;-95
2022/10/18 02:09:45;;;;;;;143.27;25.38;;;;;;;;;;4942322;28;20507;-95
2022/10/18 02:12:13;;;;;;;98.50;20.95;;;;;;;;;;4953534;28;20078;-93
2022/10/18 02:14:40;;;;;;;116.65;23.25;;;;;;;;;;4932168;28;20095;-94
2022/10/18 02:17:07;;;;;;;140.30;23.50;;;;;;;;;;4946146;28;20075;-95
2022/10/18 02:19:36;;;;;;;82.88;17.92;;;;;;;;;;4957323;28;20027;-95
2022/10/18 02:22:03;;;;;;;125.90;22.98;;;;;;;;;;4961564;28;20054;-95
2022/10/18 02:24:34;;;;;;;137.52;21.95;;;;;;;;;;4940366;28;20086;-93
2022/10/18 02:27:00;;;;;;;117.13;21.95;;;;;;;;;;4952099;28;20031;-94
2022/10/18 02:29:26;;;;;;;92.40;20.00;;;;;;;;;;4942389;28;20545;-95
2022/10/18 02:31:56;;;;;;;205.57;28.05;;;;;;;;;;4943192;28;20105;-94
2022/10/18 02:34:24;;;;;;;186.18;26.52;;;;;;;;;;4950505;28;20101;-93
2022/10/18 02:36:52;;;;;;;144.80;23.92;;;;;;;;;;4962664;28;20034;-95
2022/10/18 02:39:20;;;;;;;133.10;23.98;;;;;;;;;;4947200;28;20042;-93
2022/10/18 02:41:46;;;;;;;166.30;27.65;;;;;;;;;;4954593;28;20031;-94
2022/10/18 02:44:12;;;;;;;150.75;25.67;;;;;;;;;;4945517;28;20047;-94
2022/10/18 02:46:38;;;;;;;175.68;25.10;;;;;;;;;;4946412;28;20034;-94
2022/10/18 02:49:05;;;;;;;104.82;20.27;;;;;;;;;;4948696;28;20043;-94
2022/10/18 02:51:31;;;;;;;149.32;24.25;;;;;;;;;;4932097;28;20039;-95
2022/10/18 02:53:57;;;;;;;128.18;22.92;;;;;;;;;;4961222;28;20035;-95
2022/10/18 02:56:23;;;;;;;196.68;29.25;;;;;;;;;;4942173;28;20142;-94
2022/10/18 02:58:49;;;;;;;121.90;22.73;;;;;;;;;;4948716;28;20529;-94
2022/10/18 03:01:15;;;;;;;124.10;24.08;;;;;;;;;;4953718;28;20026;-95
2022/10/18 03:03:41;;;;;;;153.93;27.73;;;;;;;;;;4943548;28;20394;-94
2022/10/18 03:06:07;;;;;;;149.27;23.73;;;;;;;;;;4950966;28;20035;-95
2022/10/18 03:08:33;;;;;;;172.63;27.20;;;;;;;;;;4948213;28;20146;-95
2022/10/18 03:10:59;;;;;;;149.65;23.90;;;;;;;;;;4930886;28;20534;-94
2022/10/18 03:13:25;;;;;;;140.18;25.42;;;;;;;;;;4940722;28;20035;-94
2022/10/18 03:15:51;;;;;;;135.32;26.33;;;;;;;;;;4936465;28;20035;-91
2022/10/18 03:18:17;;;;;;;160.07;29.25;;;;;;;;;;4937793;28;20043;-93
2022/10/18 03:20:43;;;;;;;217.90;33.10;;;;;;;;;;4940325;28;20483;-93
2022/10/18 03:23:09;;;;;;;166.25;28.95;;;;;;;;;;4947528;28;20027;-94
2022/10/18 03:25:35;;;;;;;152.80;26.83;;;;;;;;;;4945494;28;20531;-93
2022/10/18 03:28:01;;;;;;;109.70;23.55;;;;;;;;;;4929524;28;20513;-95
2022/10/18 03:30:27;;;;;;;158.30;27.77;;;;;;;;;;4943245;28;20043;-92
2022/10/18 03:32:54;;;;;;;142.15;26.20;;;;;;;;;;4942902;28;20050;-94
2022/10/18 03:35:20;;;;;;;170.27;28.20;;;;;;;;;;4925552;28;20031;-93
2022/10/18 03:37:46;;;;;;;111.40;25.73;;;;;;;;;;4947142;28;20034;-93
2022/10/18 03:40:12;;;;;;;173.88;29.25;;;;;;;;;;4935222;28;20054;-95
2022/10/18 03:42:38;;;;;;;95.05;21.30;;;;;;;;;;4932169;28;20039;-95
2022/10/18 03:45:04;;;;;;;225.68;31.13;;;;;;;;;;4942821;28;20647;-94
2022/10/18 03:47:30;;;;;;;126.70;24.80;;;;;;;;;;4948232;28;20117;-94
2022/10/18 03:49:57;;;;;;;158.93;25.05;;;;;;;;;;4940828;28;20035;-94
2022/10/18 03:52:23;;;;;;;128.48;23.52;;;;;;;;;;4931099;28;20530;-94
2022/10/18 03:54:49;;;;;;;109.30;20.40;;;;;;;;;;4944012;28;20038;-95
2022/10/18 03:57:15;;;;;;;129.13;24.30;;;;;;;;;;4943941;28;20035;-94
2022/10/18 03:59:41;;;;;;;131.80;24.05;;;;;;;;;;4932636;28;20039;-95
2022/10/18 04:02:07;;;;;;;164.55;27.23;;;;;;;;;;4937002;28;20042;-93
2022/10/18 04:04:33;;;;;;;120.82;22.95;;;;;;;;;;4943439;28;20038;-93
2022/10/18 04:06:59;;;;;;;152.85;26.15;;;;;;;;;;4933748;28;20058;-94
2022/10/18 04:09:25;;;;;;;136.13;26.38;;;;;;;;;;4932177;28;20033;-94
2022/10/18 04:11:51;;;;;;;109.82;22.90;;;;;;;;;;4938194;28;20143;-94
2022/10/18 04:14:20;;;;;;;98.72;21.80;;;;;;;;;;4943101;28;20046;-93
2022/10/18 04:16:46;;;;;;;173.95;27.88;;;;;;;;;;4933181;28;20063;-95
2022/10/18 04:19:12;;;;;;;143.60;28.67;;;;;;;;;;4944423;28;20047;-94
2022/10/18 04:21:38;;;;;;;107.47;22.35;;;;;;;;;;4942895;28;20494;-94
2022/10/18 04:24:05;;;;;;;127.05;24.60;;;;;;;;;;4958392;28;20413;-94
2022/10/18 04:26:31;;;;;;;106.13;22.65;;;;;;;;;;4941105;28;20039;-94
2022/10/18 04:28:57;;;;;;;98.70;22.88;;;;;;;;;;4953379;28;20027;-94
2022/10/18 04:31:23;;;;;;;117.95;24.67;;;;;;;;;;4947127;28;20030;-94
2022/10/18 04:33:49;;;;;;;63.30;18.17;;;;;;;;;;4944277;28;20045;-94
2022/10/18 04:36:15;;;;;;;88.30;22.48;;;;;;;;;;4942025;28;20399;-94
2022/10/18 04:38:41;;;;;;;90.63;22.02;;;;;;;;;;4955195;28;20509;-94
2022/10/18 04:41:07;;;;;;;85.43;21.63;;;;;;;;;;4938475;28;20047;-94
2022/10/18 04:43:33;;;;;;;80.85;20.77;;;;;;;;;;4928070;28;20045;-93
2022/10/18 04:45:59;;;;;;;77.00;22.73;;;;;;;;;;4938211;28;20043;-94
2022/10/18 04:48:25;;;;;;;85.78;22.35;;;;;;;;;;4940533;28;20611;-94
2022/10/18 04:50:51;;;;;;;86.22;22.13;;;;;;;;;;4942161;28;20039;-94
2022/10/18 04:53:18;;;;;;;96.05;22.17;;;;;;;;;;4928862;28;20084;-95
2022/10/18 04:55:44;;;;;;;78.28;20.52;;;;;;;;;;4951555;28;20065;-93
2022/10/18 04:58:11;;;;;;;88.25;22.08;;;;;;;;;;4932637;28;20039;-94
2022/10/18 05:00:37;;;;;;;70.95;21.90;;;;;;;;;;4946080;28;20675;-92
2022/10/18 05:03:03;;;;;;;79.68;22.00;;;;;;;;;;4955287;28;20031;-95
2022/10/18 05:05:29;;;;;;;73.43;21.00;;;;;;;;;;4933346;28;20074;-94
2022/10/18 05:07:55;;;;;;;89.00;20.48;;;;;;;;;;4928898;28;20037;-94
2022/10/18 05:10:21;;;;;;;67.50;20.48;;;;;;;;;;4941768;28;20038;-94
2022/10/18 05:12:48;;;;;;;75.85;20.90;;;;;;;;;;4921695;28;20035;-94
2022/10/18 05:15:14;;;;;;;67.00;19.20;;;;;;;;;;4930752;28;20036;-95
2022/10/18 05:17:52;;;;;;;75.05;20.45;;;;;;;;;;4929989;28;20094;-94
2022/10/18 05:20:19;;;;;;;58.80;18.58;;;;;;;;;;4940015;28;20231;-94
2022/10/18 05:22:45;;;;;;;78.80;20.38;;;;;;;;;;4925276;28;20047;-93
2022/10/18 05:25:11;;;;;;;66.03;18.13;;;;;;;;;;4924432;29;20035;-94
2022/10/18 05:27:37;;;;;;;89.95;20.67;;;;;;;;;;4924886;28;20043;-94
2022/10/18 05:30:03;;;;;;;63.08;18.45;;;;;;;;;;4924062;28;20054;-94
2022/10/18 05:32:29;;;;;;;54.83;18.63;;;;;;;;;;4939126;28;20065;-93
2022/10/18 05:34:55;;;;;;;66.13;19.35;;;;;;;;;;4915902;28;20907;-94
2022/10/18 05:37:22;;;;;;;64.93;19.17;;;;;;;;;;4924386;28;20035;-93
2022/10/18 05:39:48;;;;;;;73.72;19.25;;;;;;;;;;4927472;29;20039;-93
2022/10/18 05:42:14;;;;;;;83.00;19.95;;;;;;;;;;4927490;28;20407;-94
2022/10/18 05:44:40;;;;;;;73.40;18.83;;;;;;;;;;4925953;28;20035;-94
2022/10/18 05:47:06;;;;;;;59.88;17.38;;;;;;;;;;4922795;28;20032;-93
2022/10/18 05:49:33;;;;;;;60.05;17.25;;;;;;;;;;4921598;28;20562;-94
2022/10/18 05:51:59;;;;;;;60.50;17.58;;;;;;;;;;4940805;28;20043;-91
2022/10/18 05:54:25;;;;;;;62.90;15.90;;;;;;;;;;4923294;28;20039;-91
2022/10/18 05:56:51;;;;;;;92.68;18.70;;;;;;;;;;4928644;28;20175;-91
2022/10/18 05:59:17;;;;;;;42.03;12.85;;;;;;;;;;4919735;28;20121;-91
2022/10/18 06:01:43;;;;;;;51.47;15.75;;;;;;;;;;4923863;28;20146;-91
2022/10/18 06:04:09;;;;;;;54.63;15.05;;;;;;;;;;4923808;28;20039;-91
2022/10/18 06:06:35;;;;;;;43.28;12.95;;;;;;;;;;4950557;28;20043;-91
2022/10/18 06:09:04;;;;;;;59.20;14.85;;;;;;;;;;4947031;28;20039;-91
2022/10/18 06:11:32;;;;;;;51.63;13.57;;;;;;;;;;4939273;28;20055;-91
2022/10/18 06:13:58;;;;;;;44.15;12.82;;;;;;;;;;4938788;28;20039;-92
2022/10/18 06:16:26;;;;;;;40.53;12.65;;;;;;;;;;4922351;28;20036;-91
2022/10/18 06:18:56;;;;;;;72.10;15.07;;;;;;;;;;4938723;28;20050;-91
2022/10/18 06:21:23;;;;;;;41.13;12.57;;;;;;;;;;4937275;28;20086;-91
2022/10/18 06:23:49;;;;;;;41.67;12.15;;;;;;;;;;4945046;28;20074;-91
2022/10/18 06:26:16;;;;;;;36.72;11.80;;;;;;;;;;4930614;28;20518;-91
2022/10/18 06:28:42;;;;;;;44.60;12.50;;;;;;;;;;4924334;28;20086;-91
2022/10/18 06:31:09;;;;;;;49.47;13.73;;;;;;;;;;4950654;28;20473;-91
2022/10/18 06:33:36;;;;;;;79.43;14.35;;;;;;;;;;4936305;28;20027;-91
2022/10/18 06:36:13;;;;;;;40.30;13.18;;;;;;;;;;4941296;28;20646;-92
2022/10/18 06:38:39;;;;;;;33.85;12.13;;;;;;;;;;4943643;28;20034;-92
2022/10/18 06:41:06;;;;;;;23.58;10.45;;;;;;;;;;4923421;28;20081;-91
2022/10/18 06:43:32;;;;;;;34.50;11.88;;;;;;;;;;4941078;28;20567;-92
2022/10/18 06:46:00;;;;;;;32.38;11.25;;;;;;;;;;4941440;28;20043;-91
2022/10/18 06:48:27;;;;;;;32.35;11.02;;;;;;;;;;4945352;28;20042;-91
2022/10/18 06:50:55;;;;;;;31.42;11.43;;;;;;;;;;4945433;28;20482;-91
2022/10/18 06:53:21;;;;;;;23.90;10.52;;;;;;;;;;4940042;28;20032;-91
2022/10/18 06:55:47;;;;;;;27.80;10.10;;;;;;;;;;4946867;28;20093;-91
2022/10/18 06:58:13;;;;;;;28.60;9.73;;;;;;;;;;4956219;28;20031;-91
2022/10/18 07:00:39;;;;;;;30.05;8.65;;;;;;;;;;4932811;28;21201;-91
2022/10/18 07:03:05;;;;;;;18.58;6.88;;;;;;;;;;4925346;28;20077;-91
2022/10/18 07:05:32;;;;;;;19.00;7.72;;;;;;;;;;4928093;28;20042;-91
2022/10/18 07:07:58;;;;;;;18.30;7.70;;;;;;;;;;4951313;28;20066;-91
2022/10/18 07:10:24;;;;;;;12.35;5.85;;;;;;;;;;4952946;28;20032;-91
2022/10/18 07:12:51;;;;;;;13.77;6.38;;;;;;;;;;4941253;28;20050;-91
2022/10/18 07:15:17;;;;;;;14.23;6.93;;;;;;;;;;4914768;29;20236;-92
2022/10/18 07:17:47;;;;;;;13.38;6.30;;;;;;;;;;4927942;28;20047;-92
2022/10/18 07:20:14;;;;;;;12.55;6.28;;;;;;;;;;4945216;28;20784;-91
2022/10/18 07:22:40;;;;;;;11.55;5.50;;;;;;;;;;4946888;28;20035;-91
2022/10/18 07:25:06;;;;;;;17.20;5.30;;;;;;;;;;4951798;28;20502;-92
2022/10/18 07:27:37;;;;;;;9.90;5.85;;;;;;;;;;4944370;28;20035;-91
2022/10/18 07:30:04;;;;;;;14.45;5.35;;;;;;;;;;4958552;28;20035;-91
2022/10/18 07:32:30;;;;;;;15.70;6.13;;;;;;;;;;4946528;28;20085;-92
2022/10/18 07:34:56;;;;;;;20.52;5.68;;;;;;;;;;4933753;28;20034;-92
2022/10/18 07:37:22;;;;;;;14.63;6.13;;;;;;;;;;4940921;28;20543;-91
2022/10/18 07:39:48;;;;;;;13.38;5.20;;;;;;;;;;4959657;28;20062;-92
2022/10/18 07:42:14;;;;;;;9.02;5.43;;;;;;;;;;4933129;28;20043;-92
2022/10/18 07:44:40;;;;;;;8.50;5.07;;;;;;;;;;4945606;28;20030;-92
2022/10/18 07:47:06;;;;;;;17.95;5.85;;;;;;;;;;4930460;28;20062;-92
2022/10/18 07:49:32;;;;;;;11.23;4.32;;;;;;;;;;4926363;28;20835;-91
2022/10/18 07:51:58;;;;;;;12.18;5.20;;;;;;;;;;4932051;28;20129;-91
2022/10/18 07:54:24;;;;;;;13.15;4.72;;;;;;;;;;4929993;28;20043;-91
2022/10/18 07:56:50;;;;;;;8.30;4.35;;;;;;;;;;4946404;28;20038;-92
2022/10/18 07:59:16;;;;;;;6.40;3.92;;;;;;;;;;4947278;28;20034;-92
2022/10/18 08:01:42;;;;;;;12.60;4.50;;;;;;;;;;4927442;28;20318;-92
2022/10/18 08:04:10;;;;;;;8.00;4.05;;;;;;;;;;4942916;28;20035;-92
2022/10/18 08:06:36;;;;;;;6.82;3.90;;;;;;;;;;4940812;28;20062;-92
2022/10/18 08:09:02;;;;;;;9.27;3.67;;;;;;;;;;4945403;28;20561;-92
2022/10/18 08:11:28;;;;;;;8.15;4.03;;;;;;;;;;4942844;28;20035;-91
2022/10/18 08:13:54;;;;;;;13.75;3.50;;;;;;;;;;4944933;28;20627;-92
2022/10/18 08:16:22;;;;;;;7.80;3.97;;;;;;;;;;4930182;28;20510;-91
2022/10/18 08:18:48;;;;;;;11.82;4.65;;;;;;;;;;4940167;28;20074;-91
2022/10/18 08:21:15;;;;;;;6.93;3.78;;;;;;;;;;4941044;28;20038;-92
2022/10/18 08:23:42;;;;;;;16.67;4.47;;;;;;;;;;4925200;29;20042;-92
2022/10/18 08:26:09;;;;;;;9.02;3.88;;;;;;;;;;4925420;28;20067;-91
2022/10/18 08:28:37;;;;;;;12.20;3.85;;;;;;;;;;4938795;28;20510;-91
2022/10/18 08:31:08;;;;;;;10.70;3.92;;;;;;;;;;4916903;28;20376;-92
2022/10/18 08:33:35;;;;;;;10.75;3.90;;;;;;;;;;4936776;28;20484;-91
2022/10/18 08:36:01;;;;;;;7.65;3.63;;;;;;;;;;4914962;28;20041;-92
2022/10/18 08:38:31;;;;;;;19.52;4.55;;;;;;;;;;4940335;29;20135;-91
2022/10/18 08:41:18;;;;;;;7.90;4.07;;;;;;;;;;4935804;28;20483;-92
2022/10/18 08:43:49;;;;;;;11.05;4.88;;;;;;;;;;4940497;28;20303;-92
2022/10/18 08:46:15;;;;;;;18.77;4.47;;;;;;;;;;4938411;28;20094;-91
2022/10/18 08:48:42;;;;;;;10.50;4.50;;;;;;;;;;4919205;28;20281;-92
2022/10/18 08:51:38;;;;;;;16.95;4.50;;;;;;;;;;4940625;28;20131;-92
2022/10/18 08:54:12;;;;;;;11.00;5.30;;;;;;;;;;4928843;28;20503;-92
2022/10/18 08:56:39;;;;;;;9.63;4.78;;;;;;;;;;4940948;28;20050;-91
2022/10/18 08:59:09;;;;;;;12.63;5.15;;;;;;;;;;4928465;28;20050;-92
2022/10/18 09:01:47;;;;;;;11.88;4.60;;;;;;;;;;4937131;28;20505;-91
2022/10/18 09:04:16;;;;;;;9.77;4.28;;;;;;;;;;4952079;28;20040;-92
2022/10/18 09:06:51;;;;;;;8.07;4.30;;;;;;;;;;4948138;28;20032;-92
2022/10/18 09:09:20;;;;;;;12.45;4.32;;;;;;;;;;4944985;28;20035;-92
2022/10/18 09:11:51;;;;;;;9.82;4.45;;;;;;;;;;4951195;28;20082;-91
2022/10/18 09:14:20;;;;;;;10.18;3.50;;;;;;;;;;4940367;28;20580;-91
2022/10/18 09:16:46;;;;;;;7.70;3.58;;;;;;;;;;4940281;28;20135;-91
2022/10/18 09:19:31;;;;;;;9.50;3.05;;;;;;;;;;4942326;28;20043;-91
2022/10/18 09:22:02;;;;;;;10.88;2.92;;;;;;;;;;4949071;28;20499;-92
2022/10/18 09:24:31;;;;;;;8.98;2.40;;;;;;;;;;4950271;28;20051;-92
2022/10/18 09:27:01;;;;;;;8.82;2.92;;;;;;;;;;4935746;28;20051;-91
2022/10/18 09:29:45;;;;;;;15.65;3.50;;;;;;;;;;4933409;28;20387;-92
2022/10/18 09:32:27;;;;;;;13.70;3.15;;;;;;;;;;4940252;28;20037;-91
2022/10/18 09:34:55;;;;;;;15.43;3.15;;;;;;;;;;4950953;28;20472;-91
2022/10/18 09:37:21;;;;;;;18.83;3.85;;;;;;;;;;4933446;28;20031;-92
2022/10/18 09:39:48;;;;;;;11.05;3.00;;;;;;;;;;4939172;28;20023;-91
2022/10/18 09:42:17;;;;;;;21.95;4.40;;;;;;;;;;4938576;28;20035;-92
2022/10/18 09:44:46;;;;;;;8.70;3.20;;;;;;;;;;4935483;28;20031;-91
2022/10/18 09:47:16;;;;;;;13.23;2.85;;;;;;;;;;4940229;28;20027;-91
2022/10/18 09:49:44;;;;;;;8.18;3.28;;;;;;;;;;4936860;28;20062;-91
2022/10/18 09:52:16;;;;;;;12.98;3.17;;;;;;;;;;4940412;28;20098;-91
2022/10/18 09:54:53;;;;;;;8.32;4.15;;;;;;;;;;4936586;28;20031;-92
2022/10/18 09:57:32;;;;;;;12.50;2.85;;;;;;;;;;4939430;28;20031;-92
2022/10/18 09:59:58;;;;;;;11.48;3.42;;;;;;;;;;4936448;28;20035;-91
2022/10/18 10:02:24;;;;;;;18.17;3.63;;;;;;;;;;4928129;29;20514;-92
2022/10/18 10:04:52;;;;;;;19.05;3.58;;;;;;;;;;4912861;28;20183;-92
2022/10/18 10:07:33;;;;;;;20.50;3.15;;;;;;;;;;4956593;28;20024;-91
2022/10/18 10:10:05;;;;;;;17.90;3.33;;;;;;;;;;4935204;28;20480;-92
2022/10/18 10:12:32;;;;;;;14.35;2.95;;;;;;;;;;4936622;28;20396;-91
2022/10/18 10:15:09;;;;;;;24.05;3.78;;;;;;;;;;4931484;28;20079;-91
2022/10/18 10:17:35;;;;;;;15.02;3.15;;;;;;;;;;4938273;28;20083;-91
2022/10/18 10:20:07;;;;;;;9.70;2.42;;;;;;;;;;4939941;28;20823;-91
2022/10/18 10:22:39;;;;;;;14.25;2.47;;;;;;;;;;4952817;28;20124;-91
2022/10/18 10:25:22;;;;;;;17.40;2.95;;;;;;;;;;4952309;28;20491;-92
2022/10/18 10:30:48;;;;;;;6.88;2.75;;;;;;;;;;4942245;28;20062;-92
2022/10/18 10:33:32;;;;;;;10.70;2.80;;;;;;;;;;4957180;28;20038;-92
2022/10/18 10:36:06;;;;;;;15.02;3.78;;;;;;;;;;4955316;28;20083;-92
2022/10/18 10:38:40;;;;;;;10.88;2.40;;;;;;;;;;4947576;28;20031;-92
2022/10/18 10:41:27;;;;;;;13.32;2.28;;;;;;;;;;4950387;28;20078;-92
2022/10/18 10:43:54;;;;;;;12.18;2.80;;;;;;;;;;4956656;28;20024;-91
2022/10/18 10:46:22;;;;;;;14.70;3.05;;;;;;;;;;4943362;28;20230;-91
2022/10/18 10:49:27;;;;;;;16.35;2.45;;;;;;;;;;4954022;28;20094;-91
2022/10/18 10:51:53;;;;;;;19.10;3.30;;;;;;;;;;4952334;28;20035;-92
2022/10/18 10:54:28;;;;;;;9.38;2.55;;;;;;;;;;4951150;28;20077;-91
2022/10/18 10:56:59;;;;;;;6.50;2.05;;;;;;;;;;4960494;28;20036;-92
2022/10/18 10:59:27;;;;;;;15.82;3.60;;;;;;;;;;4959464;28;20126;-91
2022/10/18 11:02:20;;;;;;;9.23;2.08;;;;;;;;;;4940482;28;20032;-91
2022/10/18 11:04:50;;;;;;;10.52;2.83;;;;;;;;;;4942253;28;20217;-92
2022/10/18 11:07:19;;;;;;;8.32;3.28;;;;;;;;;;4940484;28;20027;-91
2022/10/18 11:10:04;;;;;;;16.38;2.95;;;;;;;;;;4941551;28;20557;-91
2022/10/18 11:13:01;;;;;;;13.68;3.00;;;;;;;;;;4941345;28;20035;-91
2022/10/18 11:15:36;;;;;;;10.40;2.78;;;;;;;;;;4939567;28;20484;-91
2022/10/18 11:18:13;;;;;;;13.52;2.90;;;;;;;;;;4956266;28;20059;-92
2022/10/18 11:20:41;;;;;;;15.75;3.15;;;;;;;;;;4947608;28;20110;-91
2022/10/18 11:23:08;;;;;;;18.33;2.83;;;;;;;;;;4946354;28;20094;-91
2022/10/18 11:25:44;;;;;;;17.00;2.90;;;;;;;;;;4932442;28;20077;-92
2022/10/18 11:28:33;;;;;;;13.55;1.80;;;;;;;;;;4959373;28;20050;-92
2022/10/18 11:31:05;;;;;;;10.85;2.45;;;;;;;;;;4959080;28;20494;-91
2022/10/18 11:33:41;;;;;;;12.50;2.88;;;;;;;;;;4958935;28;20475;-92
2022/10/18 11:36:10;;;;;;;14.88;3.45;;;;;;;;;;4944354;28;20031;-92
2022/10/18 11:38:54;;;;;;;8.50;2.80;;;;;;;;;;4953544;28;20501;-91
2022/10/18 11:41:29;;;;;;;7.68;2.65;;;;;;;;;;4945831;28;20073;-92
2022/10/18 11:43:58;;;;;;;12.77;2.50;;;;;;;;;;4957685;28;20032;-92
2022/10/18 11:46:30;;;;;;;12.73;2.92;;;;;;;;;;4940744;28;20038;-91
2022/10/18 11:49:14;;;;;;;8.68;2.60;;;;;;;;;;4940925;28;20039;-91
2022/10/18 11:51:52;;;;;;;9.82;2.45;;;;;;;;;;4959960;28;20033;-91
2022/10/18 11:54:28;;;;;;;13.43;1.95;;;;;;;;;;4945457;28;20059;-92
2022/10/18 11:57:13;;;;;;;10.30;2.05;;;;;;;;;;4948042;28;20494;-92
2022/10/18 11:59:45;;;;;;;8.38;2.67;;;;;;;;;;4945619;28;20035;-91
2022/10/18 12:02:24;;;;;;;9.35;1.77;;;;;;;;;;4949888;28;20027;-91
2022/10/18 12:05:02;;;;;;;11.98;2.72;;;;;;;;;;4951907;28;20047;-91
2022/10/18 12:07:34;;;;;;;10.93;2.67;;;;;;;;;;4947122;28;20031;-92
2022/10/18 12:10:00;;;;;;;6.70;2.15;;;;;;;;;;4953040;28;20189;-91
2022/10/18 12:12:37;;;;;;;12.15;3.10;;;;;;;;;;4933116;28;20031;-92
2022/10/18 12:15:06;;;;;;;7.25;1.90;;;;;;;;;;4937986;28;20081;-91
2022/10/18 12:17:40;;;;;;;13.45;2.70;;;;;;;;;;4941243;28;20019;-92
2022/10/18 12:20:29;;;;;;;11.88;1.98;;;;;;;;;;4939744;28;20646;-92
2022/10/18 12:22:59;;;;;;;6.78;2.20;;;;;;;;;;4946148;28;20355;-91
2022/10/18 12:25:27;;;;;;;11.52;1.90;;;;;;;;;;4944522;28;20038;-94
2022/10/18 12:28:00;;;;;;;8.38;1.98;;;;;;;;;;4945645;28;20031;-91
2022/10/18 12:30:30;;;;;;;7.90;2.20;;;;;;;;;;4945807;28;20030;-92
2022/10/18 12:33:05;;;;;;;12.18;2.28;;;;;;;;;;4944659;28;20762;-91
2022/10/18 12:35:36;;;;;;;10.48;2.10;;;;;;;;;;4947079;28;20097;-91
2022/10/18 12:38:05;;;;;;;6.90;1.98;;;;;;;;;;4940190;28;20038;-92
2022/10/18 12:40:43;;;;;;;11.38;2.17;;;;;;;;;;4937724;28;20519;-91
2022/10/18 12:43:47;;;;;;;10.32;2.22;;;;;;;;;;4958134;28;20134;-91
2022/10/18 12:46:13;;;;;;;12.25;2.40;;;;;;;;;;4953773;28;20038;-92
2022/10/18 12:48:44;;;;;;;12.18;1.95;;;;;;;;;;4934257;28;20043;-91
2022/10/18 12:51:22;;;;;;;9.43;1.80;;;;;;;;;;4953733;28;20054;-92
2022/10/18 12:53:53;;;;;;;17.02;2.25;;;;;;;;;;4960086;28;20446;-91
2022/10/18 12:56:40;;;;;;;12.98;2.00;;;;;;;;;;4943579;28;20038;-91
2022/10/18 12:59:16;;;;;;;11.10;3.38;;;;;;;;;;4946446;28;20061;-92
2022/10/18 13:01:51;;;;;;;18.65;3.67;;;;;;;;;;4956397;28;20485;-91
2022/10/18 13:04:27;;;;;;;11.07;2.35;;;;;;;;;;4942654;28;20035;-91
2022/10/18 13:06:59;;;;;;;13.55;2.30;;;;;;;;;;4939573;28;20078;-91
2022/10/18 13:09:30;;;;;;;19.92;2.28;;;;;;;;;;4948060;28;20046;-91
2022/10/18 13:12:19;;;;;;;13.55;2.50;;;;;;;;;;4944168;28;20041;-91
2022/10/18 13:15:05;;;;;;;12.85;3.05;;;;;;;;;;4944760;28;20131;-91
2022/10/18 13:17:41;;;;;;;11.95;2.40;;;;;;;;;;4960289;28;20035;-92
2022/10/18 13:20:14;;;;;;;20.60;2.25;;;;;;;;;;4937473;28;20035;-91
2022/10/18 13:22:59;;;;;;;10.57;2.40;;;;;;;;;;4961729;28;20035;-91
2022/10/18 13:25:32;;;;;;;4.00;1.40;;;;;;;;;;4957961;28;20599;-92
2022/10/18 13:28:14;;;;;;;16.65;2.63;;;;;;;;;;4956200;28;20486;-91
2022/10/18 13:30:44;;;;;;;10.65;2.13;;;;;;;;;;4938432;28;21405;-93
2022/10/18 13:33:29;;;;;;;8.30;2.13;;;;;;;;;;4958348;28;20034;-91
2022/10/18 13:35:56;;;;;;;8.75;1.80;;;;;;;;;;4956689;28;20432;-92
2022/10/18 13:38:41;;;;;;;10.55;1.90;;;;;;;;;;4957202;28;20439;-92
2022/10/18 13:41:09;;;;;;;20.30;2.53;;;;;;;;;;4938110;28;20493;-90
2022/10/18 13:43:55;;;;;;;8.38;2.42;;;;;;;;;;4943709;28;20031;-91
2022/10/18 13:46:21;;;;;;;;;;;;;;;;;;4943920;28;20039;-91
2022/10/18 13:48:49;;;;;;;13.48;2.25;;;;;;;;;;4951571;28;19913;-92
2022/10/18 13:51:27;;;;;;;11.85;2.10;;;;;;;;;;4957743;28;20038;-93
2022/10/18 13:53:59;;;;;;;9.30;1.77;;;;;;;;;;4947725;28;20552;-93
2022/10/18 13:56:32;;;;;;;10.77;2.28;;;;;;;;;;4959211;28;20035;-91
2022/10/18 13:59:06;;;;;;;6.78;3.17;;;;;;;;;;4941642;28;20383;-91
2022/10/18 14:01:40;;;;;;;6.13;1.80;;;;;;;;;;4944177;28;20485;-91
2022/10/18 14:04:06;;;;;;;12.48;2.05;;;;;;;;;;4950129;28;20045;-91
2022/10/18 14:06:38;;;;;;;8.10;1.67;;;;;;;;;;4945441;28;20075;-91
2022/10/18 14:09:19;;;;;;;12.70;3.13;;;;;;;;;;4957787;28;20402;-90
2022/10/18 14:11:45;;;;;;;13.88;2.33;;;;;;;;;;4957771;28;20430;-91
2022/10/18 14:14:22;;;;;;;12.52;2.30;;;;;;;;;;4945459;28;20041;-91
2022/10/18 14:16:54;;;;;;;11.43;2.05;;;;;;;;;;4944961;28;20042;-91
2022/10/18 14:19:38;;;;;;;17.55;3.53;;;;;;;;;;4965303;28;20030;-89
2022/10/18 14:22:13;;;;;;;12.48;2.25;;;;;;;;;;4959063;28;20040;-91
2022/10/18 14:24:42;;;;;;;11.57;2.03;;;;;;;;;;4940929;28;20316;-91
2022/10/18 14:27:22;;;;;;;17.48;3.53;;;;;;;;;;4949059;28;20035;-90
2022/10/18 14:29:49;;;;;;;11.75;2.10;;;;;;;;;;4954980;28;20040;-92
2022/10/18 14:32:24;;;;;;;10.27;2.30;;;;;;;;;;4927204;28;20040;-91
2022/10/18 14:34:50;;;;;;;10.38;1.98;;;;;;;;;;4961065;28;20027;-91
2022/10/18 14:37:25;;;;;;;11.43;1.80;;;;;;;;;;4935682;28;20400;-90
2022/10/18 14:39:51;;;;;;;15.37;2.17;;;;;;;;;;4944478;28;20027;-91
2022/10/18 14:42:22;;;;;;;18.73;2.30;;;;;;;;;;4946140;28;20045;-91
2022/10/18 14:44:48;;;;;;;14.35;1.98;;;;;;;;;;4945457;28;20063;-90